Time;durP1;ratioP1;P1;durP2;ratioP2;P2;SDS_P1;SDS_P2;PMS_P1;PMS_P2;Temp;Humidity;BMP_temperature;BMP_pressure;BME280_temperature;BME280_humidity;BME280_pressure;Samples;Min_cycle;Max_cycle;Signal;HPM_P1;HPM_P2
2021/09/17 00:01:09;;;;;;;1.75;0.80;;;;;;;16.00;100.00;100604.94;6398606;23;20243;-79
2021/09/17 00:03:39;;;;;;;2.47;0.80;;;;;;;15.97;100.00;100607.78;6399000;23;20009;-79
2021/09/17 00:06:09;;;;;;;2.47;0.80;;;;;;;16.13;100.00;100609.47;6398556;23;20066;-80
2021/09/17 00:08:40;;;;;;;1.80;0.90;;;;;;;16.05;100.00;100603.75;6397836;23;20036;-79
2021/09/17 00:11:10;;;;;;;2.90;0.77;;;;;;;16.01;100.00;100602.25;6398596;23;20023;-79
2021/09/17 00:13:41;;;;;;;1.77;0.90;;;;;;;15.95;100.00;100607.00;6397149;23;20496;-79
2021/09/17 00:16:11;;;;;;;2.75;0.90;;;;;;;15.99;100.00;100609.38;6397515;23;20035;-79
2021/09/17 00:18:42;;;;;;;2.28;0.80;;;;;;;15.99;100.00;100604.13;6397419;23;20145;-79
2021/09/17 00:21:12;;;;;;;2.47;0.80;;;;;;;15.86;100.00;100603.09;6398156;23;20027;-80
2021/09/17 00:23:42;;;;;;;2.80;0.82;;;;;;;15.99;100.00;100603.25;6397600;23;20004;-79
2021/09/17 00:26:13;;;;;;;1.20;0.80;;;;;;;15.92;100.00;100591.38;6397870;23;20433;-79
2021/09/17 00:28:43;;;;;;;1.70;0.80;;;;;;;16.00;100.00;100595.28;6398304;23;20001;-79
2021/09/17 00:31:13;;;;;;;2.30;0.90;;;;;;;16.01;100.00;100596.13;6397787;23;20353;-79
2021/09/17 00:33:44;;;;;;;4.57;1.10;;;;;;;15.82;100.00;100585.78;6390907;23;20004;-79
2021/09/17 00:36:14;;;;;;;2.55;1.00;;;;;;;15.87;100.00;100588.16;6397949;22;20032;-79
2021/09/17 00:38:44;;;;;;;3.27;1.13;;;;;;;15.83;100.00;100589.25;6397236;23;19997;-79
2021/09/17 00:41:14;;;;;;;3.27;1.20;;;;;;;15.76;100.00;100593.19;6397859;23;20677;-79
2021/09/17 00:43:45;;;;;;;3.17;1.10;;;;;;;15.83;100.00;100595.38;6398269;23;20263;-78
2021/09/17 00:46:15;;;;;;;3.90;1.10;;;;;;;15.75;100.00;100605.53;6401043;23;20037;-80
2021/09/17 00:48:45;;;;;;;3.15;1.10;;;;;;;15.64;100.00;100604.38;6400723;23;20004;-80
2021/09/17 00:51:16;;;;;;;2.45;0.98;;;;;;;15.83;100.00;100597.16;6400220;23;20502;-78
2021/09/17 00:53:46;;;;;;;2.30;1.17;;;;;;;15.79;100.00;100601.78;6400667;23;20001;-82
2021/09/17 00:56:17;;;;;;;2.75;1.30;;;;;;;15.78;100.00;100589.53;6400952;23;20130;-79
2021/09/17 00:58:47;;;;;;;1.55;1.02;;;;;;;15.67;100.00;100597.19;6401115;23;20011;-81
2021/09/17 01:01:17;;;;;;;3.10;1.25;;;;;;;15.77;100.00;100597.50;6400726;23;20005;-81
2021/09/17 01:03:47;;;;;;;5.90;1.35;;;;;;;15.87;100.00;100589.00;6363415;22;20005;-80
2021/09/17 01:06:18;;;;;;;2.70;1.20;;;;;;;15.83;100.00;100590.09;6398971;23;20344;-81
2021/09/17 01:08:48;;;;;;;2.22;1.17;;;;;;;15.77;100.00;100593.09;6399628;23;20005;-80
2021/09/17 01:11:18;;;;;;;2.85;1.52;;;;;;;15.87;100.00;100594.25;6401165;23;20015;-79
2021/09/17 01:13:49;;;;;;;5.18;1.80;;;;;;;15.83;100.00;100579.56;6400841;23;20009;-79
2021/09/17 01:16:20;;;;;;;2.72;1.58;;;;;;;15.79;100.00;100580.69;6400401;23;20012;-80
2021/09/17 01:18:51;;;;;;;2.72;1.58;;;;;;;15.71;100.00;100582.88;6400494;23;20000;-79
2021/09/17 01:21:23;;;;;;;2.83;1.65;;;;;;;15.77;100.00;100579.94;6400268;23;20023;-79
2021/09/17 01:23:53;;;;;;;4.53;1.30;;;;;;;15.82;100.00;100583.13;6399715;23;20432;-80
2021/09/17 01:26:23;;;;;;;2.55;1.40;;;;;;;15.79;100.00;100578.06;6400266;23;20134;-79
2021/09/17 01:28:53;;;;;;;3.38;1.60;;;;;;;15.83;100.00;100576.94;6400627;23;20001;-79
2021/09/17 01:31:24;;;;;;;4.20;1.60;;;;;;;15.70;100.00;100573.28;6400436;23;20009;-78
2021/09/17 01:33:54;;;;;;;5.47;1.88;;;;;;;15.78;100.00;100583.38;6400255;23;20007;-80
2021/09/17 01:36:24;;;;;;;2.47;1.40;;;;;;;15.72;100.00;100581.94;6400544;23;20001;-81
2021/09/17 01:38:54;;;;;;;2.35;1.33;;;;;;;15.76;100.00;100575.59;6363979;23;19997;-79
2021/09/17 01:41:25;;;;;;;5.20;1.53;;;;;;;15.68;100.00;100577.78;6399944;22;20029;-81
2021/09/17 01:43:55;;;;;;;3.22;1.60;;;;;;;15.60;100.00;100573.88;6363737;22;20233;-81
2021/09/17 01:46:25;;;;;;;3.25;1.70;;;;;;;15.71;100.00;100582.06;6400050;23;20109;-81
2021/09/17 01:48:56;;;;;;;2.28;1.45;;;;;;;15.77;100.00;100574.66;6400580;23;20487;-80
2021/09/17 01:51:26;;;;;;;4.47;1.60;;;;;;;15.72;100.00;100581.94;6398709;23;20009;-79
2021/09/17 01:53:56;;;;;;;5.35;1.98;;;;;;;15.69;100.00;100578.66;6399680;23;20001;-78
2021/09/17 01:56:26;;;;;;;5.43;2.05;;;;;;;15.64;100.00;100573.63;6401740;23;20009;-79
2021/09/17 01:58:57;;;;;;;4.95;2.08;;;;;;;15.47;100.00;100576.38;6401246;23;20004;-79
2021/09/17 02:01:27;;;;;;;3.90;1.83;;;;;;;15.59;100.00;100578.31;6401046;23;20038;-80
2021/09/17 02:03:57;;;;;;;4.82;1.90;;;;;;;15.52;100.00;100582.22;6399453;23;20004;-81
2021/09/17 02:06:28;;;;;;;4.18;2.08;;;;;;;15.63;100.00;100578.97;6399497;23;20009;-81
2021/09/17 02:08:58;;;;;;;3.67;2.03;;;;;;;15.49;100.00;100571.84;6400811;23;19997;-80
2021/09/17 02:11:29;;;;;;;4.50;2.30;;;;;;;15.52;100.00;100578.75;6400674;23;20080;-79
2021/09/17 02:14:01;;;;;;;5.40;2.20;;;;;;;15.36;100.00;100581.38;6400599;23;20043;-81
2021/09/17 02:16:32;;;;;;;4.25;2.28;;;;;;;15.35;100.00;100581.47;6399899;23;20027;-80
2021/09/17 02:19:02;;;;;;;3.38;2.20;;;;;;;15.44;100.00;100573.03;6400896;23;20001;-81
2021/09/17 02:21:33;;;;;;;5.05;2.40;;;;;;;15.48;100.00;100570.16;6363736;23;20015;-80
2021/09/17 02:24:04;;;;;;;5.15;2.65;;;;;;;15.22;100.00;100565.44;6399406;23;20454;-79
2021/09/17 02:26:34;;;;;;;3.70;2.33;;;;;;;15.28;100.00;100564.25;6399779;23;20388;-79
2021/09/17 02:29:05;;;;;;;3.88;2.70;;;;;;;15.29;100.00;100558.94;6399320;23;19997;-79
2021/09/17 02:31:36;;;;;;;4.80;2.85;;;;;;;15.38;100.00;100558.41;6398831;23;20696;-79
2021/09/17 02:34:06;;;;;;;5.45;3.15;;;;;;;15.28;100.00;100558.97;6398845;23;20001;-79
2021/09/17 02:36:36;;;;;;;4.87;3.27;;;;;;;15.14;100.00;100565.00;6398926;23;20009;-82
2021/09/17 02:39:07;;;;;;;4.90;3.10;;;;;;;15.12;100.00;100571.28;6399271;23;20228;-79
2021/09/17 02:41:38;;;;;;;6.75;3.40;;;;;;;15.08;100.00;100565.34;6399333;23;20012;-79
2021/09/17 02:44:09;;;;;;;9.57;3.70;;;;;;;15.23;100.00;100564.53;6399146;23;20036;-80
2021/09/17 02:46:40;;;;;;;5.45;3.30;;;;;;;15.31;100.00;100566.75;6399167;23;20007;-80
2021/09/17 02:49:10;;;;;;;6.07;3.40;;;;;;;15.21;100.00;100566.38;6399294;23;20005;-79
2021/09/17 02:51:40;;;;;;;5.07;3.72;;;;;;;15.27;100.00;100562.56;6399156;23;20053;-79
2021/09/17 02:54:10;;;;;;;5.40;3.58;;;;;;;15.20;100.00;100558.56;6398634;23;20005;-79
2021/09/17 02:56:41;;;;;;;5.28;3.50;;;;;;;15.33;100.00;100555.19;6399980;23;20391;-79
2021/09/17 02:59:11;;;;;;;7.38;3.78;;;;;;;15.31;100.00;100557.06;6399065;23;20036;-82
2021/09/17 03:01:41;;;;;;;7.10;4.00;;;;;;;15.04;100.00;100558.53;6399124;23;20001;-79
2021/09/17 03:04:12;;;;;;;6.05;3.72;;;;;;;15.15;100.00;100558.81;6361223;23;20078;-78
2021/09/17 03:06:42;;;;;;;5.70;3.95;;;;;;;15.24;100.00;100554.81;6398668;23;20088;-81
2021/09/17 03:09:12;;;;;;;5.95;3.42;;;;;;;15.21;100.00;100555.81;6398643;23;20218;-79
2021/09/17 03:11:43;;;;;;;8.25;3.70;;;;;;;15.28;100.00;100554.56;6398395;23;20585;-79
2021/09/17 03:14:13;;;;;;;4.97;3.60;;;;;;;15.25;100.00;100554.75;6398284;23;20008;-79
2021/09/17 03:16:43;;;;;;;6.10;3.97;;;;;;;15.16;100.00;100547.34;6362032;23;20304;-79
2021/09/17 03:19:13;;;;;;;7.10;4.07;;;;;;;15.13;100.00;100552.78;6398547;23;20363;-82
2021/09/17 03:21:44;;;;;;;6.43;4.05;;;;;;;15.12;100.00;100545.81;6398700;23;20393;-82
2021/09/17 03:24:14;;;;;;;8.68;4.53;;;;;;;15.04;100.00;100548.00;6398238;23;20013;-80
2021/09/17 03:26:44;;;;;;;6.50;4.45;;;;;;;15.17;100.00;100548.22;6398789;23;20012;-78
2021/09/17 03:29:15;;;;;;;6.82;4.32;;;;;;;15.16;100.00;100552.59;6398892;23;20039;-79
2021/09/17 03:31:45;;;;;;;9.68;4.57;;;;;;;15.27;100.00;100549.38;6398526;23;20043;-79
2021/09/17 03:34:15;;;;;;;6.90;4.22;;;;;;;15.30;100.00;100551.88;6398281;23;20001;-78
2021/09/17 03:36:46;;;;;;;7.75;4.07;;;;;;;15.28;100.00;100546.69;6398765;23;20023;-78
2021/09/17 03:39:16;;;;;;;8.40;4.32;;;;;;;15.19;100.00;100544.53;6399813;23;20002;-78
2021/09/17 03:41:46;;;;;;;8.20;4.45;;;;;;;15.06;100.00;100556.69;6397431;23;20005;-81
2021/09/17 03:44:17;;;;;;;7.60;4.88;;;;;;;15.16;100.00;100549.97;6397382;23;20005;-81
2021/09/17 03:46:47;;;;;;;7.03;4.80;;;;;;;15.21;100.00;100547.94;6398662;23;20171;-79
2021/09/17 03:49:18;;;;;;;7.60;4.70;;;;;;;15.19;100.00;100543.72;6398119;23;20026;-79
2021/09/17 03:51:48;;;;;;;8.60;5.22;;;;;;;15.31;100.00;100551.81;6363530;23;20010;-77
2021/09/17 03:54:21;;;;;;;6.30;4.70;;;;;;;15.34;100.00;100551.63;6366544;23;20001;-77
2021/09/17 03:56:51;;;;;;;6.90;4.53;;;;;;;15.24;100.00;100541.66;6366222;23;20009;-77
2021/09/17 03:59:22;;;;;;;6.32;4.60;;;;;;;15.30;100.00;100550.09;6366430;23;20269;-77
2021/09/17 04:01:52;;;;;;;6.43;4.47;;;;;;;15.09;100.00;100553.88;6457745;22;20387;-77
2021/09/17 04:04:23;;;;;;;6.82;4.70;;;;;;;15.24;100.00;100555.69;6365200;23;20008;-77
2021/09/17 04:06:53;;;;;;;7.40;5.20;;;;;;;15.34;100.00;100556.06;6366962;23;20300;-77
2021/09/17 04:09:24;;;;;;;8.60;4.88;;;;;;;15.39;100.00;100551.38;6459039;22;20324;-77
2021/09/17 04:11:54;;;;;;;8.95;5.25;;;;;;;15.47;100.00;100547.38;6369709;23;20009;-79
2021/09/17 04:14:26;;;;;;;7.32;5.28;;;;;;;15.33;100.00;100542.03;6371293;23;20457;-79
2021/09/17 04:16:56;;;;;;;7.88;5.72;;;;;;;15.31;100.00;100541.28;6464854;22;20459;-79
2021/09/17 04:19:26;;;;;;;7.03;5.25;;;;;;;15.17;100.00;100543.78;6464712;22;20244;-79
2021/09/17 04:21:56;;;;;;;8.50;5.30;;;;;;;15.22;100.00;100541.72;6371952;23;20055;-79
2021/09/17 04:24:27;;;;;;;8.48;5.53;;;;;;;15.36;100.00;100533.13;6371324;23;20033;-79
2021/09/17 04:26:57;;;;;;;8.93;5.15;;;;;;;15.34;100.00;100535.00;6464569;22;20011;-79
2021/09/17 04:29:27;;;;;;;6.57;5.18;;;;;;;15.38;100.00;100542.63;6464475;22;20028;-79
2021/09/17 04:31:57;;;;;;;7.63;5.28;;;;;;;15.24;100.00;100537.25;6464154;22;20001;-79
2021/09/17 04:34:28;;;;;;;7.95;5.22;;;;;;;15.26;100.00;100540.66;6462647;22;20016;-79
2021/09/17 04:36:58;;;;;;;8.38;5.22;;;;;;;15.34;100.00;100541.09;6463214;22;20003;-79
2021/09/17 04:39:29;;;;;;;7.32;4.90;;;;;;;15.37;100.00;100540.91;6371002;23;20004;-79
2021/09/17 04:41:59;;;;;;;8.45;5.07;;;;;;;15.38;100.00;100542.63;6372483;23;20005;-78
2021/09/17 04:44:29;;;;;;;8.82;5.10;;;;;;;15.40;100.00;100546.00;6370326;23;20172;-78
2021/09/17 04:46:59;;;;;;;7.75;4.97;;;;;;;15.32;100.00;100542.13;6370891;23;20001;-78
2021/09/17 04:49:30;;;;;;;9.05;5.20;;;;;;;15.36;100.00;100543.66;6372865;23;20506;-78
2021/09/17 04:52:01;;;;;;;7.85;5.38;;;;;;;15.31;100.00;100546.53;6464324;22;20009;-78
2021/09/17 04:54:31;;;;;;;10.10;6.25;;;;;;;15.12;100.00;100545.81;6463688;22;20002;-78
2021/09/17 04:57:02;;;;;;;7.07;5.55;;;;;;;15.21;100.00;100552.38;6464483;22;20002;-78
2021/09/17 04:59:32;;;;;;;9.73;5.72;;;;;;;15.14;100.00;100549.22;6367628;23;20028;-78
2021/09/17 05:02:02;;;;;;;10.73;6.15;;;;;;;15.19;100.00;100551.59;6372976;23;20005;-80
2021/09/17 05:04:33;;;;;;;9.43;6.55;;;;;;;15.26;100.00;100553.81;6373286;23;19998;-78
2021/09/17 05:07:03;;;;;;;9.93;6.80;;;;;;;15.30;100.00;100547.47;6368570;23;20008;-78
2021/09/17 05:09:34;;;;;;;9.43;6.05;;;;;;;15.22;100.00;100547.00;6368598;23;20009;-78
2021/09/17 05:12:05;;;;;;;8.85;6.80;;;;;;;15.13;100.00;100552.78;6461155;22;20005;-78
2021/09/17 05:14:36;;;;;;;10.32;6.80;;;;;;;15.26;100.00;100559.09;6369577;23;20043;-78
2021/09/17 05:17:06;;;;;;;10.65;6.18;;;;;;;15.32;100.00;100552.66;6464305;22;20002;-77
2021/09/17 05:19:37;;;;;;;10.27;6.72;;;;;;;15.35;100.00;100550.69;6373397;23;20484;-78
2021/09/17 05:22:07;;;;;;;10.27;6.90;;;;;;;15.27;100.00;100550.25;6373257;23;20001;-79
2021/09/17 05:24:38;;;;;;;12.70;7.40;;;;;;;15.29;100.00;100547.53;6465090;22;20037;-78
2021/09/17 05:27:14;;;;;;;10.07;7.55;;;;;;;15.42;100.00;100552.06;6464571;22;20425;-79
2021/09/17 05:29:44;;;;;;;12.10;7.93;;;;;;;15.40;100.00;100543.38;6464267;22;20738;-78
2021/09/17 05:32:14;;;;;;;9.75;7.32;;;;;;;15.38;100.00;100547.06;6463683;22;20013;-78
2021/09/17 05:34:52;;;;;;;11.73;8.03;;;;;;;15.19;100.00;100552.44;6463687;22;20002;-79
2021/09/17 05:37:22;;;;;;;11.35;7.90;;;;;;;15.28;100.00;100551.09;6468110;22;20260;-78
2021/09/17 05:39:54;;;;;;;13.20;8.13;;;;;;;15.33;100.00;100549.09;6374584;23;19998;-79
2021/09/17 05:42:24;;;;;;;12.75;8.50;;;;;;;15.25;100.00;100552.13;6372837;23;20033;-79
2021/09/17 05:44:55;;;;;;;12.35;8.18;;;;;;;15.26;100.00;100551.19;6462789;22;20008;-78
2021/09/17 05:47:25;;;;;;;12.57;9.02;;;;;;;15.34;100.00;100556.06;6463246;22;20230;-79
2021/09/17 05:49:55;;;;;;;12.30;8.40;;;;;;;15.34;100.00;100549.00;6371794;23;20017;-79
2021/09/17 05:52:26;;;;;;;11.45;7.97;;;;;;;15.45;100.00;100561.56;6464725;22;20100;-80
2021/09/17 05:54:56;;;;;;;11.50;8.32;;;;;;;15.46;100.00;100550.09;6464575;22;20062;-80
2021/09/17 05:57:26;;;;;;;11.93;8.02;;;;;;;15.50;100.00;100555.13;6464955;22;20005;-79
2021/09/17 05:59:57;;;;;;;11.68;8.15;;;;;;;15.55;100.00;100555.69;6370762;23;20354;-79
2021/09/17 06:02:27;;;;;;;11.80;7.57;;;;;;;15.52;100.00;100555.03;6463738;22;20002;-78
2021/09/17 06:04:57;;;;;;;9.88;6.97;;;;;;;15.49;100.00;100556.06;6371591;23;20008;-79
2021/09/17 06:07:28;;;;;;;11.07;7.22;;;;;;;15.47;100.00;100547.38;6372437;23;20021;-79
2021/09/17 06:09:58;;;;;;;8.98;6.10;;;;;;;15.62;100.00;100564.97;6372721;23;20428;-79
2021/09/17 06:12:28;;;;;;;9.00;5.85;;;;;;;15.57;100.00;100561.72;6371715;23;20084;-79
2021/09/17 06:14:59;;;;;;;8.10;5.78;;;;;;;15.57;100.00;100561.72;6372445;23;20008;-79
2021/09/17 06:17:29;;;;;;;8.70;5.10;;;;;;;15.65;100.00;100556.03;6465177;22;20005;-79
2021/09/17 06:19:59;;;;;;;5.97;4.30;;;;;;;15.67;100.00;100562.91;6466059;22;20342;-80
2021/09/17 06:22:30;;;;;;;6.97;4.63;;;;;;;15.75;100.00;100562.50;6373144;23;20271;-80
2021/09/17 06:25:00;;;;;;;6.72;4.38;;;;;;;15.87;100.00;100562.63;6375251;23;20006;-81
2021/09/17 06:27:30;;;;;;;7.13;4.30;;;;;;;16.06;100.00;100559.81;6468228;22;20006;-82
2021/09/17 06:30:00;;;;;;;7.47;4.35;;;;;;;15.98;100.00;100554.97;6373327;23;20445;-80
2021/09/17 06:32:31;;;;;;;7.90;3.88;;;;;;;16.00;100.00;100553.09;6375332;23;20019;-80
2021/09/17 06:35:01;;;;;;;7.20;4.03;;;;;;;16.06;100.00;100549.25;6467321;22;20005;-79
2021/09/17 06:37:32;;;;;;;7.28;3.67;;;;;;;16.11;100.00;100548.06;6467265;22;20016;-80
2021/09/17 06:40:03;;;;;;;5.47;3.30;;;;;;;16.07;100.00;100554.41;6468663;22;20057;-80
2021/09/17 06:42:33;;;;;;;6.18;3.40;;;;;;;15.95;100.00;100552.50;6374436;23;20576;-82
2021/09/17 06:45:04;;;;;;;7.17;3.27;;;;;;;16.03;100.00;100552.06;6466548;22;20086;-81
2021/09/17 06:47:42;;;;;;;7.22;3.67;;;;;;;15.93;100.00;100548.25;6467927;22;20229;-79
2021/09/17 06:50:14;;;;;;;6.85;3.03;;;;;;;16.14;100.00;100550.50;6374880;23;20329;-79
2021/09/17 06:52:48;;;;;;;5.63;3.17;;;;;;;16.25;100.00;100553.34;6467602;22;20542;-81
2021/09/17 06:55:26;;;;;;;6.25;3.70;;;;;;;16.25;100.00;100547.22;6467169;22;20024;-80
2021/09/17 06:57:59;;;;;;;7.03;3.08;;;;;;;16.36;100.00;100550.13;6469169;22;20005;-80
2021/09/17 07:00:32;;;;;;;5.28;2.80;;;;;;;16.40;100.00;100555.09;6468380;22;20490;-79
2021/09/17 07:03:03;;;;;;;3.58;2.33;;;;;;;16.50;100.00;100551.00;6465715;22;20080;-79
2021/09/17 07:05:33;;;;;;;4.43;2.75;;;;;;;16.48;100.00;100550.25;6463815;22;20429;-79
2021/09/17 07:08:09;;;;;;;5.43;2.60;;;;;;;17.42;100.00;100546.94;6463601;22;20020;-80
2021/09/17 07:10:40;;;;;;;4.53;2.65;;;;;;;17.16;100.00;100550.31;6372075;23;20012;-79
2021/09/17 07:13:11;;;;;;;4.20;2.47;;;;;;;17.20;100.00;100551.84;6371741;23;20010;-79
2021/09/17 07:15:42;;;;;;;3.90;2.60;;;;;;;17.00;100.00;100556.69;6371694;23;20028;-79
2021/09/17 07:18:12;;;;;;;3.63;2.10;;;;;;;16.82;100.00;100549.88;6464493;22;20248;-79
2021/09/17 07:20:43;;;;;;;4.28;2.10;;;;;;;16.90;100.00;100548.47;6464217;22;20057;-79
2021/09/17 07:23:13;;;;;;;2.90;2.08;;;;;;;16.89;100.00;100552.06;6373174;23;20005;-79
2021/09/17 07:25:44;;;;;;;5.47;2.15;;;;;;;17.01;100.00;100561.00;6372101;23;20001;-79
2021/09/17 07:28:14;;;;;;;5.43;2.00;;;;;;;16.87;100.00;100553.09;6371640;23;20032;-80
2021/09/17 07:30:44;;;;;;;2.78;1.67;;;;;;;16.88;100.00;100562.69;6371580;23;20036;-79
2021/09/17 07:33:15;;;;;;;3.20;1.80;;;;;;;17.04;100.00;100563.47;6371345;23;19998;-79
2021/09/17 07:35:45;;;;;;;4.40;2.05;;;;;;;16.91;100.00;100559.88;6463082;22;20519;-80
2021/09/17 07:38:15;;;;;;;6.20;2.07;;;;;;;16.86;100.00;100557.53;6370826;23;20006;-80
2021/09/17 07:40:46;;;;;;;3.03;1.48;;;;;;;17.01;100.00;100576.84;6371761;23;20237;-79
2021/09/17 07:43:16;;;;;;;5.72;1.65;;;;;;;16.91;100.00;100560.72;6463753;22;20013;-79
2021/09/17 07:45:46;;;;;;;4.15;1.80;;;;;;;16.91;100.00;100570.44;6370314;23;20467;-80
2021/09/17 07:48:17;;;;;;;2.03;1.55;;;;;;;16.71;100.00;100573.44;6372370;23;20088;-79
2021/09/17 07:50:47;;;;;;;4.97;1.90;;;;;;;16.84;100.00;100572.59;6462816;22;20010;-79
2021/09/17 07:53:17;;;;;;;3.97;1.90;;;;;;;16.94;100.00;100579.03;6463627;22;20379;-79
2021/09/17 07:55:47;;;;;;;3.38;1.50;;;;;;;16.83;100.00;100573.53;6369952;23;20348;-79
2021/09/17 07:58:18;;;;;;;4.15;1.70;;;;;;;17.01;100.00;100585.59;6463418;22;20005;-79
2021/09/17 08:00:48;;;;;;;5.43;1.33;;;;;;;17.31;98.86;100574.94;6462674;22;20002;-79
2021/09/17 08:03:21;;;;;;;3.03;1.27;;;;;;;18.06;93.81;100575.31;6462283;22;20052;-79
2021/09/17 08:05:51;;;;;;;3.78;1.30;;;;;;;18.51;92.70;100580.22;6463378;22;20005;-80
2021/09/17 08:08:22;;;;;;;3.17;1.27;;;;;;;18.19;93.48;100581.50;6369946;23;20088;-79
2021/09/17 08:10:52;;;;;;;2.03;1.25;;;;;;;18.02;93.73;100579.13;6463156;22;20012;-79
2021/09/17 08:13:23;;;;;;;3.10;1.30;;;;;;;18.46;93.31;100579.66;6462961;22;20016;-79
2021/09/17 08:15:53;;;;;;;2.78;1.00;;;;;;;18.54;91.86;100574.72;6371242;23;20314;-80
2021/09/17 08:18:25;;;;;;;3.47;0.70;;;;;;;18.72;89.85;100586.69;6465541;22;20024;-79
2021/09/17 08:20:57;;;;;;;1.58;0.80;;;;;;;18.55;87.76;100579.06;6464800;22;20322;-79
2021/09/17 08:23:28;;;;;;;3.45;0.80;;;;;;;19.37;86.54;100575.84;6464819;22;20058;-79
2021/09/17 08:25:59;;;;;;;4.15;1.00;;;;;;;21.57;77.51;100577.41;6465682;22;20084;-80
2021/09/17 08:28:30;;;;;;;3.08;0.70;;;;;;;22.67;73.56;100574.34;6465036;22;19998;-80
2021/09/17 08:31:03;;;;;;;2.42;0.80;;;;;;;23.63;70.43;100567.50;6371116;23;20006;-80
2021/09/17 08:33:33;;;;;;;4.03;0.77;;;;;;;23.93;67.52;100564.78;6370967;23;19997;-80
2021/09/17 08:36:04;;;;;;;2.30;0.60;;;;;;;24.80;66.14;100564.59;6371756;23;20068;-80
2021/09/17 08:38:34;;;;;;;1.38;0.50;;;;;;;22.76;71.72;100574.41;6371694;23;20009;-80
2021/09/17 08:41:04;;;;;;;1.63;0.52;;;;;;;22.36;71.89;100572.53;6371922;23;20001;-80
2021/09/17 08:43:35;;;;;;;1.17;0.50;;;;;;;22.10;73.75;100574.72;6371357;23;20094;-80
2021/09/17 08:46:05;;;;;;;0.70;0.30;;;;;;;22.90;70.74;100574.91;6370429;23;20539;-80
2021/09/17 08:48:35;;;;;;;0.73;0.30;;;;;;;23.13;70.30;100570.25;6371590;23;20236;-80
2021/09/17 08:51:06;;;;;;;1.15;0.45;;;;;;;21.83;73.39;100578.81;6370745;23;20012;-80
2021/09/17 08:53:36;;;;;;;1.20;0.40;;;;;;;20.61;74.97;100582.41;6371109;23;20001;-79
2021/09/17 08:56:08;;;;;;;1.20;0.40;;;;;;;22.38;71.08;100584.78;6372180;23;20173;-79
2021/09/17 08:58:38;;;;;;;2.72;0.50;;;;;;;22.68;69.88;100569.72;6370679;23;20005;-80
2021/09/17 09:01:24;;;;;;;1.25;0.40;;;;;;;22.66;70.94;100572.66;6371471;23;20362;-80
2021/09/17 09:03:59;;;;;;;1.13;0.43;;;;;;;24.61;64.97;100561.97;6370199;23;20001;-80
2021/09/17 09:06:35;;;;;;;0.57;0.20;;;;;;;22.91;68.12;100570.41;6370776;23;19998;-80
2021/09/17 09:09:23;;;;;;;0.77;0.43;;;;;;;22.80;69.23;100576.66;6463305;22;20367;-79
2021/09/17 09:11:54;;;;;;;0.50;0.30;;;;;;;21.83;71.32;100577.00;6371300;23;20006;-79
2021/09/17 09:14:24;;;;;;;1.55;0.20;;;;;;;22.34;70.70;100574.47;6463438;22;20009;-79
2021/09/17 09:16:56;;;;;;;1.30;0.40;;;;;;;21.79;71.24;100574.69;6463193;22;20005;-80
2021/09/17 09:19:34;;;;;;;1.50;0.40;;;;;;;21.34;73.92;100586.34;6370819;23;20229;-79
2021/09/17 09:22:06;;;;;;;1.17;0.32;;;;;;;20.63;75.66;100574.31;6371075;23;20001;-79
2021/09/17 09:24:43;;;;;;;1.35;0.57;;;;;;;20.29;78.20;100583.97;6462773;22;20021;-79
2021/09/17 09:27:19;;;;;;;1.63;0.30;;;;;;;19.89;76.60;100579.94;6371314;23;20074;-79
2021/09/17 09:29:51;;;;;;;1.63;0.30;;;;;;;19.90;76.88;100576.31;6463441;22;20010;-79
2021/09/17 09:32:33;;;;;;;2.03;0.30;;;;;;;19.39;78.94;100580.09;6463040;22;20029;-80
2021/09/17 09:35:05;;;;;;;0.60;0.25;;;;;;;19.10;81.12;100589.22;6462676;22;20044;-79
2021/09/17 09:37:38;;;;;;;1.10;0.40;;;;;;;18.81;82.00;100582.47;6370086;23;20024;-79
2021/09/17 09:40:16;;;;;;;1.63;0.40;;;;;;;18.54;84.06;100583.47;6369241;23;20001;-79
2021/09/17 09:42:47;;;;;;;2.05;0.60;;;;;;;18.43;84.00;100583.38;6370431;23;20445;-79
2021/09/17 09:45:22;;;;;;;0.90;0.40;;;;;;;18.38;83.50;100576.69;6369781;23;20006;-79
2021/09/17 09:47:55;;;;;;;2.15;0.52;;;;;;;18.37;84.97;100581.13;6369816;23;20009;-79
2021/09/17 09:50:30;;;;;;;2.97;0.40;;;;;;;18.43;84.48;100585.16;6371662;23;20009;-79
2021/09/17 09:53:02;;;;;;;1.98;0.63;;;;;;;18.37;84.89;100577.66;6374166;23;19998;-79
2021/09/17 09:55:32;;;;;;;0.93;0.50;;;;;;;18.11;85.62;100582.00;6466806;22;20012;-80
2021/09/17 09:58:04;;;;;;;2.37;0.47;;;;;;;18.07;85.63;100577.00;6466367;22;20001;-80
2021/09/17 10:00:34;;;;;;;0.52;0.40;;;;;;;18.09;85.96;100580.41;6371125;23;20236;-80
2021/09/17 10:03:05;;;;;;;1.63;0.50;;;;;;;18.06;85.44;100570.88;6465694;22;20006;-80
2021/09/17 10:05:35;;;;;;;1.33;0.30;;;;;;;18.22;85.55;100576.00;6371289;23;20010;-79
2021/09/17 10:08:06;;;;;;;2.42;0.52;;;;;;;18.19;85.88;100571.75;6465924;22;20005;-80
2021/09/17 10:10:37;;;;;;;1.85;0.50;;;;;;;18.24;84.52;100576.75;6463210;22;20241;-80
2021/09/17 10:13:07;;;;;;;1.30;0.40;;;;;;;18.36;84.35;100563.56;6371175;23;20461;-80
2021/09/17 10:15:38;;;;;;;1.77;0.43;;;;;;;18.41;83.69;100573.84;6370183;23;20005;-79
2021/09/17 10:18:08;;;;;;;1.25;0.40;;;;;;;18.86;83.63;100575.03;6370964;23;20740;-80
2021/09/17 10:20:39;;;;;;;0.57;0.40;;;;;;;19.60;81.92;100567.94;6371120;23;20004;-81
2021/09/17 10:23:28;;;;;;;1.85;0.43;;;;;;;19.51;79.75;100573.06;6464083;22;20398;-80
2021/09/17 10:26:05;;;;;;;1.40;0.40;;;;;;;19.11;81.08;100561.75;6462508;22;20070;-79
2021/09/17 10:29:05;;;;;;;0.45;0.30;;;;;;;18.73;82.44;100563.59;6371201;23;20010;-80
2021/09/17 10:31:45;;;;;;;1.88;0.50;;;;;;;18.73;83.34;100561.91;6371436;23;20280;-80
2021/09/17 10:34:58;;;;;;;0.70;0.30;;;;;;;18.51;85.17;100567.00;6369114;23;20080;-80
2021/09/17 10:37:50;;;;;;;1.33;0.47;;;;;;;18.42;83.98;100567.59;6404739;22;20012;-79
2021/09/17 10:40:34;;;;;;;1.67;0.40;;;;;;;18.31;85.09;100575.44;6462350;22;20460;-80
2021/09/17 10:43:10;;;;;;;1.60;0.60;;;;;;;18.30;85.77;100566.63;6462962;22;20306;-79
2021/09/17 10:45:42;;;;;;;1.55;0.35;;;;;;;18.23;86.05;100573.25;6371015;23;20025;-80
2021/09/17 10:48:19;;;;;;;1.95;0.45;;;;;;;18.35;85.82;100564.50;6361461;23;20068;-79
2021/09/17 10:50:49;;;;;;;2.28;0.45;;;;;;;18.35;85.92;100566.31;6463902;22;20062;-80
2021/09/17 10:53:41;;;;;;;1.37;0.50;;;;;;;18.29;86.63;100564.06;6370539;23;20005;-80
2021/09/17 10:56:12;;;;;;;3.55;0.73;;;;;;;18.32;86.72;100561.25;6371168;23;20485;-80
2021/09/17 10:58:44;;;;;;;1.23;0.40;;;;;;;18.18;86.75;100569.22;6463852;22;20409;-80
2021/09/17 11:01:16;;;;;;;2.38;0.47;;;;;;;18.14;85.69;100567.75;6462599;22;20017;-79
2021/09/17 11:03:53;;;;;;;1.67;0.30;;;;;;;18.12;86.53;100569.59;6462896;22;20369;-80
2021/09/17 11:06:26;;;;;;;2.13;0.40;;;;;;;18.40;85.92;100553.63;6370638;23;20012;-79
2021/09/17 11:08:58;;;;;;;1.48;0.30;;;;;;;18.56;84.81;100559.56;6463585;22;20028;-80
2021/09/17 11:11:46;;;;;;;1.20;0.38;;;;;;;18.71;84.84;100564.66;6371057;23;20003;-79
2021/09/17 11:14:18;;;;;;;0.85;0.43;;;;;;;18.91;83.37;100556.19;6462560;22;20140;-80
2021/09/17 11:16:51;;;;;;;1.30;0.32;;;;;;;18.97;83.40;100561.88;6371907;23;20008;-80
2021/09/17 11:19:22;;;;;;;1.35;0.57;;;;;;;18.94;82.77;100556.81;6463292;22;20005;-79
2021/09/17 11:21:52;;;;;;;1.05;0.50;;;;;;;18.83;83.59;100553.22;6371291;23;20066;-80
2021/09/17 11:24:28;;;;;;;1.50;0.40;;;;;;;18.68;84.22;100556.09;6369783;23;20005;-80
2021/09/17 11:26:58;;;;;;;0.75;0.30;;;;;;;18.62;84.19;100559.13;6371305;23;20001;-79
2021/09/17 11:29:28;;;;;;;1.57;0.40;;;;;;;18.62;84.85;100551.19;6463610;22;20464;-79
2021/09/17 11:32:01;;;;;;;1.40;0.30;;;;;;;18.54;84.75;100557.00;6463411;22;20260;-80
2021/09/17 11:34:34;;;;;;;0.73;0.40;;;;;;;18.49;85.50;100555.66;6370845;22;20232;-79
2021/09/17 11:37:04;;;;;;;0.88;0.47;;;;;;;18.56;84.93;100549.84;6371411;23;20005;-79
2021/09/17 11:39:39;;;;;;;1.25;0.40;;;;;;;18.39;86.00;100546.63;6370113;23;20066;-80